Terminal Aerodrome Forecast
Issued by NWS

Home | Current Version | Previous Version | Text Only | Print | Product List | Glossary On
Versions: 1 2 3 4 5 6 7 8 9 10 11 12 13 14 15 16 17 18 19 20 21 22
000
FTUS43 KDLH 301100 RRA
TAFHIB
TAF
KHIB 301141Z 3012/3112 00000KT P6SM VCSH OVC015
      TEMPO 3012/3015 OVC009
     FM301600 32006KT P6SM VCSH BKN015 OVC040
     FM302100 33012G22KT P6SM BKN035
     FM310000 35014G25KT P6SM BKN025
     FM310600 35012G20KT P6SM SCT025=

USA.gov is the U.S. government's official web portal to all federal, state and local government web resources and services.